sensor_id;sensor_type;location;lat;lon;timestamp;temperature;humidity
5461;DHT22;2753;49.196;8.286;2024-02-21T00:00:25;8.70;99.90
5461;DHT22;2753;49.196;8.286;2024-02-21T00:02:51;8.70;99.90
5461;DHT22;2753;49.196;8.286;2024-02-21T00:05:16;8.70;99.90
5461;DHT22;2753;49.196;8.286;2024-02-21T00:07:42;8.70;99.90
5461;DHT22;2753;49.196;8.286;2024-02-21T00:10:08;8.70;99.90
5461;DHT22;2753;49.196;8.286;2024-02-21T00:12:34;8.70;99.90
5461;DHT22;2753;49.196;8.286;2024-02-21T00:15:00;8.70;99.90
5461;DHT22;2753;49.196;8.286;2024-02-21T00:17:25;8.70;99.90
5461;DHT22;2753;49.196;8.286;2024-02-21T00:19:54;8.70;99.90
5461;DHT22;2753;49.196;8.286;2024-02-21T00:22:20;8.70;99.90
5461;DHT22;2753;49.196;8.286;2024-02-21T00:24:46;8.70;99.90
5461;DHT22;2753;49.196;8.286;2024-02-21T00:27:11;8.70;99.90
5461;DHT22;2753;49.196;8.286;2024-02-21T00:29:37;8.70;99.90
5461;DHT22;2753;49.196;8.286;2024-02-21T00:32:03;8.70;99.90
5461;DHT22;2753;49.196;8.286;2024-02-21T00:34:32;8.70;99.90
5461;DHT22;2753;49.196;8.286;2024-02-21T00:36:57;8.70;99.90
5461;DHT22;2753;49.196;8.286;2024-02-21T00:39:23;8.70;99.90
5461;DHT22;2753;49.196;8.286;2024-02-21T00:41:48;8.70;99.90
5461;DHT22;2753;49.196;8.286;2024-02-21T00:44:14;8.70;99.90
5461;DHT22;2753;49.196;8.286;2024-02-21T00:46:40;8.70;99.90
5461;DHT22;2753;49.196;8.286;2024-02-21T00:49:06;8.70;99.90
5461;DHT22;2753;49.196;8.286;2024-02-21T00:51:32;8.70;99.90
5461;DHT22;2753;49.196;8.286;2024-02-21T00:53:57;8.60;99.90
5461;DHT22;2753;49.196;8.286;2024-02-21T00:56:23;8.60;99.90
5461;DHT22;2753;49.196;8.286;2024-02-21T00:58:49;8.60;99.90
5461;DHT22;2753;49.196;8.286;2024-02-21T01:01:21;8.60;99.90
5461;DHT22;2753;49.196;8.286;2024-02-21T01:03:48;8.60;99.90
5461;DHT22;2753;49.196;8.286;2024-02-21T01:06:13;8.50;99.90
5461;DHT22;2753;49.196;8.286;2024-02-21T01:08:39;8.50;99.90
5461;DHT22;2753;49.196;8.286;2024-02-21T01:11:05;8.50;99.90
5461;DHT22;2753;49.196;8.286;2024-02-21T01:13:30;8.50;99.90
5461;DHT22;2753;49.196;8.286;2024-02-21T01:15:56;8.50;99.90
5461;DHT22;2753;49.196;8.286;2024-02-21T01:18:25;8.50;99.90
5461;DHT22;2753;49.196;8.286;2024-02-21T01:20:51;8.40;99.90
5461;DHT22;2753;49.196;8.286;2024-02-21T01:23:17;8.40;99.90
5461;DHT22;2753;49.196;8.286;2024-02-21T01:25:42;8.40;99.90
5461;DHT22;2753;49.196;8.286;2024-02-21T01:28:08;8.40;99.90
5461;DHT22;2753;49.196;8.286;2024-02-21T01:30:34;8.40;99.90
5461;DHT22;2753;49.196;8.286;2024-02-21T01:33:00;8.40;99.90
5461;DHT22;2753;49.196;8.286;2024-02-21T01:35:26;8.40;99.90
5461;DHT22;2753;49.196;8.286;2024-02-21T01:37:51;8.30;99.90
5461;DHT22;2753;49.196;8.286;2024-02-21T01:40:17;8.30;99.90
5461;DHT22;2753;49.196;8.286;2024-02-21T01:42:43;8.30;99.90
5461;DHT22;2753;49.196;8.286;2024-02-21T01:45:09;8.30;99.90
5461;DHT22;2753;49.196;8.286;2024-02-21T01:47:36;8.30;99.90
5461;DHT22;2753;49.196;8.286;2024-02-21T01:50:03;7.70;99.90
5461;DHT22;2753;49.196;8.286;2024-02-21T01:52:32;8.30;99.90
5461;DHT22;2753;49.196;8.286;2024-02-21T01:54:59;8.30;99.90
5461;DHT22;2753;49.196;8.286;2024-02-21T01:57:25;8.30;99.90
5461;DHT22;2753;49.196;8.286;2024-02-21T01:59:51;8.30;99.90
5461;DHT22;2753;49.196;8.286;2024-02-21T02:02:17;8.30;99.90
5461;DHT22;2753;49.196;8.286;2024-02-21T02:04:43;8.30;99.90
5461;DHT22;2753;49.196;8.286;2024-02-21T02:07:10;8.40;99.90
5461;DHT22;2753;49.196;8.286;2024-02-21T02:09:36;8.30;99.90
5461;DHT22;2753;49.196;8.286;2024-02-21T02:12:02;8.40;99.90
5461;DHT22;2753;49.196;8.286;2024-02-21T02:14:27;8.40;99.90
5461;DHT22;2753;49.196;8.286;2024-02-21T02:16:53;8.30;99.90
5461;DHT22;2753;49.196;8.286;2024-02-21T02:19:19;8.30;99.90
5461;DHT22;2753;49.196;8.286;2024-02-21T02:21:46;8.30;99.90
5461;DHT22;2753;49.196;8.286;2024-02-21T02:24:19;8.30;99.90
5461;DHT22;2753;49.196;8.286;2024-02-21T02:26:45;8.30;99.90
5461;DHT22;2753;49.196;8.286;2024-02-21T02:29:11;8.30;99.90
5461;DHT22;2753;49.196;8.286;2024-02-21T02:31:36;8.30;99.90
5461;DHT22;2753;49.196;8.286;2024-02-21T02:34:03;8.30;99.90
5461;DHT22;2753;49.196;8.286;2024-02-21T02:36:32;8.30;99.90
5461;DHT22;2753;49.196;8.286;2024-02-21T02:38:58;8.20;99.90
5461;DHT22;2753;49.196;8.286;2024-02-21T02:41:24;8.20;99.90
5461;DHT22;2753;49.196;8.286;2024-02-21T02:43:50;8.20;99.90
5461;DHT22;2753;49.196;8.286;2024-02-21T02:46:15;8.20;99.90
5461;DHT22;2753;49.196;8.286;2024-02-21T02:48:41;8.20;99.90
5461;DHT22;2753;49.196;8.286;2024-02-21T02:51:07;8.20;99.90
5461;DHT22;2753;49.196;8.286;2024-02-21T02:53:33;8.20;99.90
5461;DHT22;2753;49.196;8.286;2024-02-21T02:55:58;8.20;99.90
5461;DHT22;2753;49.196;8.286;2024-02-21T02:58:24;8.10;99.90
5461;DHT22;2753;49.196;8.286;2024-02-21T03:00:49;8.10;99.90
5461;DHT22;2753;49.196;8.286;2024-02-21T03:03:15;8.10;99.90
5461;DHT22;2753;49.196;8.286;2024-02-21T03:05:41;8.10;99.90
5461;DHT22;2753;49.196;8.286;2024-02-21T03:08:07;8.10;99.90
5461;DHT22;2753;49.196;8.286;2024-02-21T03:10:33;8.00;99.90
5461;DHT22;2753;49.196;8.286;2024-02-21T03:12:59;7.60;99.90
5461;DHT22;2753;49.196;8.286;2024-02-21T03:15:25;8.00;99.90
5461;DHT22;2753;49.196;8.286;2024-02-21T03:17:50;8.00;99.90
5461;DHT22;2753;49.196;8.286;2024-02-21T03:20:16;8.00;99.90
5461;DHT22;2753;49.196;8.286;2024-02-21T03:22:42;8.00;99.90
5461;DHT22;2753;49.196;8.286;2024-02-21T03:25:08;7.90;99.90
5461;DHT22;2753;49.196;8.286;2024-02-21T03:27:35;7.90;99.90
5461;DHT22;2753;49.196;8.286;2024-02-21T03:30:01;7.90;99.90
5461;DHT22;2753;49.196;8.286;2024-02-21T03:32:26;7.90;99.90
5461;DHT22;2753;49.196;8.286;2024-02-21T03:34:53;8.00;99.90
5461;DHT22;2753;49.196;8.286;2024-02-21T03:37:20;8.00;99.90
5461;DHT22;2753;49.196;8.286;2024-02-21T03:39:45;8.00;99.90
5461;DHT22;2753;49.196;8.286;2024-02-21T03:42:11;8.00;99.90
5461;DHT22;2753;49.196;8.286;2024-02-21T03:44:37;8.00;99.90
5461;DHT22;2753;49.196;8.286;2024-02-21T03:47:03;8.00;99.90
5461;DHT22;2753;49.196;8.286;2024-02-21T03:49:29;7.90;99.90
5461;DHT22;2753;49.196;8.286;2024-02-21T03:51:57;7.90;99.90
5461;DHT22;2753;49.196;8.286;2024-02-21T03:54:23;7.90;99.90
5461;DHT22;2753;49.196;8.286;2024-02-21T03:56:49;7.90;99.90
5461;DHT22;2753;49.196;8.286;2024-02-21T03:59:14;7.80;99.90
5461;DHT22;2753;49.196;8.286;2024-02-21T04:01:40;7.80;99.90
5461;DHT22;2753;49.196;8.286;2024-02-21T04:04:06;7.80;99.90
5461;DHT22;2753;49.196;8.286;2024-02-21T04:06:32;7.70;99.90
5461;DHT22;2753;49.196;8.286;2024-02-21T04:08:57;7.70;99.90
5461;DHT22;2753;49.196;8.286;2024-02-21T04:11:23;7.80;99.90
5461;DHT22;2753;49.196;8.286;2024-02-21T04:13:49;7.70;99.90
5461;DHT22;2753;49.196;8.286;2024-02-21T04:16:17;7.60;99.90
5461;DHT22;2753;49.196;8.286;2024-02-21T04:18:43;7.60;99.90
5461;DHT22;2753;49.196;8.286;2024-02-21T04:21:09;7.70;99.90
5461;DHT22;2753;49.196;8.286;2024-02-21T04:23:35;7.70;99.90
5461;DHT22;2753;49.196;8.286;2024-02-21T04:26:00;7.70;99.90
5461;DHT22;2753;49.196;8.286;2024-02-21T04:28:26;7.70;99.90
5461;DHT22;2753;49.196;8.286;2024-02-21T04:30:52;7.60;99.90
5461;DHT22;2753;49.196;8.286;2024-02-21T04:33:18;7.50;99.90
5461;DHT22;2753;49.196;8.286;2024-02-21T04:35:44;7.50;99.90
5461;DHT22;2753;49.196;8.286;2024-02-21T04:38:10;7.50;99.90
5461;DHT22;2753;49.196;8.286;2024-02-21T04:40:36;7.60;99.90
5461;DHT22;2753;49.196;8.286;2024-02-21T04:43:02;7.50;99.90
5461;DHT22;2753;49.196;8.286;2024-02-21T04:45:27;7.50;99.90
5461;DHT22;2753;49.196;8.286;2024-02-21T04:47:53;7.50;99.90
5461;DHT22;2753;49.196;8.286;2024-02-21T04:50:19;7.50;99.90
5461;DHT22;2753;49.196;8.286;2024-02-21T04:52:44;7.50;99.90
5461;DHT22;2753;49.196;8.286;2024-02-21T04:55:10;7.50;99.90
5461;DHT22;2753;49.196;8.286;2024-02-21T04:57:36;7.40;99.90
5461;DHT22;2753;49.196;8.286;2024-02-21T05:00:01;7.40;99.90
5461;DHT22;2753;49.196;8.286;2024-02-21T05:02:27;7.30;99.90
5461;DHT22;2753;49.196;8.286;2024-02-21T05:04:53;7.30;99.90
5461;DHT22;2753;49.196;8.286;2024-02-21T05:07:21;7.30;99.90
5461;DHT22;2753;49.196;8.286;2024-02-21T05:09:47;7.30;99.90
5461;DHT22;2753;49.196;8.286;2024-02-21T05:12:14;7.30;99.90
5461;DHT22;2753;49.196;8.286;2024-02-21T05:14:39;7.30;99.90
5461;DHT22;2753;49.196;8.286;2024-02-21T05:17:05;7.20;99.90
5461;DHT22;2753;49.196;8.286;2024-02-21T05:19:30;7.20;99.90
5461;DHT22;2753;49.196;8.286;2024-02-21T05:21:56;7.10;99.90
5461;DHT22;2753;49.196;8.286;2024-02-21T05:24:22;7.20;99.90
5461;DHT22;2753;49.196;8.286;2024-02-21T05:26:47;7.20;99.90
5461;DHT22;2753;49.196;8.286;2024-02-21T05:29:13;7.20;99.90
5461;DHT22;2753;49.196;8.286;2024-02-21T05:31:55;7.20;99.90
5461;DHT22;2753;49.196;8.286;2024-02-21T05:34:24;7.20;99.90
5461;DHT22;2753;49.196;8.286;2024-02-21T05:36:51;8.60;99.90
5461;DHT22;2753;49.196;8.286;2024-02-21T05:39:17;7.20;99.90
5461;DHT22;2753;49.196;8.286;2024-02-21T05:41:43;7.10;99.90
5461;DHT22;2753;49.196;8.286;2024-02-21T05:44:08;7.10;99.90
5461;DHT22;2753;49.196;8.286;2024-02-21T05:46:34;7.00;99.90
5461;DHT22;2753;49.196;8.286;2024-02-21T05:49:00;7.00;99.90
5461;DHT22;2753;49.196;8.286;2024-02-21T05:51:26;7.00;99.90
5461;DHT22;2753;49.196;8.286;2024-02-21T05:53:52;7.00;99.90
5461;DHT22;2753;49.196;8.286;2024-02-21T05:56:17;7.00;99.90
5461;DHT22;2753;49.196;8.286;2024-02-21T05:58:43;6.90;99.90
5461;DHT22;2753;49.196;8.286;2024-02-21T06:01:09;6.90;99.90
5461;DHT22;2753;49.196;8.286;2024-02-21T06:03:35;6.90;99.90
5461;DHT22;2753;49.196;8.286;2024-02-21T06:06:04;6.90;99.90
5461;DHT22;2753;49.196;8.286;2024-02-21T06:08:33;6.90;99.90
5461;DHT22;2753;49.196;8.286;2024-02-21T06:10:58;6.80;99.90
5461;DHT22;2753;49.196;8.286;2024-02-21T06:13:24;6.80;99.90
5461;DHT22;2753;49.196;8.286;2024-02-21T06:15:50;6.80;99.90
5461;DHT22;2753;49.196;8.286;2024-02-21T06:18:17;6.80;99.90
5461;DHT22;2753;49.196;8.286;2024-02-21T06:20:43;6.80;99.90
5461;DHT22;2753;49.196;8.286;2024-02-21T06:23:09;6.80;99.90
5461;DHT22;2753;49.196;8.286;2024-02-21T06:25:35;6.80;99.90
5461;DHT22;2753;49.196;8.286;2024-02-21T06:28:01;6.80;99.90
5461;DHT22;2753;49.196;8.286;2024-02-21T06:30:26;6.70;99.90
5461;DHT22;2753;49.196;8.286;2024-02-21T06:32:52;6.70;99.90
5461;DHT22;2753;49.196;8.286;2024-02-21T06:35:21;6.70;99.90
5461;DHT22;2753;49.196;8.286;2024-02-21T06:37:47;6.70;99.90
5461;DHT22;2753;49.196;8.286;2024-02-21T06:40:17;6.70;99.90
5461;DHT22;2753;49.196;8.286;2024-02-21T06:42:43;6.70;99.90
5461;DHT22;2753;49.196;8.286;2024-02-21T06:45:09;6.70;99.90
5461;DHT22;2753;49.196;8.286;2024-02-21T06:47:34;6.70;99.90
5461;DHT22;2753;49.196;8.286;2024-02-21T06:50:00;6.70;99.90
5461;DHT22;2753;49.196;8.286;2024-02-21T06:52:26;6.70;99.90
5461;DHT22;2753;49.196;8.286;2024-02-21T06:54:52;6.80;99.90
5461;DHT22;2753;49.196;8.286;2024-02-21T06:57:21;6.80;99.90
5461;DHT22;2753;49.196;8.286;2024-02-21T06:59:46;6.80;99.90
5461;DHT22;2753;49.196;8.286;2024-02-21T07:02:12;6.80;99.90
5461;DHT22;2753;49.196;8.286;2024-02-21T07:04:38;6.80;99.90
5461;DHT22;2753;49.196;8.286;2024-02-21T07:07:03;6.80;99.90
5461;DHT22;2753;49.196;8.286;2024-02-21T07:09:29;6.80;99.90
5461;DHT22;2753;49.196;8.286;2024-02-21T07:12:00;6.80;99.90
5461;DHT22;2753;49.196;8.286;2024-02-21T07:14:27;6.80;99.90
5461;DHT22;2753;49.196;8.286;2024-02-21T07:16:53;6.80;99.90
5461;DHT22;2753;49.196;8.286;2024-02-21T07:19:19;6.90;99.90
5461;DHT22;2753;49.196;8.286;2024-02-21T07:21:45;6.90;99.90
5461;DHT22;2753;49.196;8.286;2024-02-21T07:24:11;7.00;99.90
5461;DHT22;2753;49.196;8.286;2024-02-21T07:26:36;7.00;99.90
5461;DHT22;2753;49.196;8.286;2024-02-21T07:29:02;6.90;99.90
5461;DHT22;2753;49.196;8.286;2024-02-21T07:31:28;6.90;99.90
5461;DHT22;2753;49.196;8.286;2024-02-21T07:33:53;6.90;99.90
5461;DHT22;2753;49.196;8.286;2024-02-21T07:36:29;7.00;99.90
5461;DHT22;2753;49.196;8.286;2024-02-21T07:38:58;7.00;99.90
5461;DHT22;2753;49.196;8.286;2024-02-21T07:41:25;7.10;99.90
5461;DHT22;2753;49.196;8.286;2024-02-21T07:43:51;7.10;99.90
5461;DHT22;2753;49.196;8.286;2024-02-21T07:46:20;7.10;99.90
5461;DHT22;2753;49.196;8.286;2024-02-21T07:48:46;7.10;99.90
5461;DHT22;2753;49.196;8.286;2024-02-21T07:51:12;7.10;99.90
5461;DHT22;2753;49.196;8.286;2024-02-21T07:53:41;7.20;99.90
5461;DHT22;2753;49.196;8.286;2024-02-21T07:56:19;7.20;99.90
5461;DHT22;2753;49.196;8.286;2024-02-21T07:58:45;7.20;99.90
5461;DHT22;2753;49.196;8.286;2024-02-21T08:01:11;7.20;99.90
5461;DHT22;2753;49.196;8.286;2024-02-21T08:03:36;7.30;99.90
5461;DHT22;2753;49.196;8.286;2024-02-21T08:06:03;7.20;99.90
5461;DHT22;2753;49.196;8.286;2024-02-21T08:08:29;7.20;99.90
5461;DHT22;2753;49.196;8.286;2024-02-21T08:10:54;7.20;99.90
5461;DHT22;2753;49.196;8.286;2024-02-21T08:13:20;7.20;99.90
5461;DHT22;2753;49.196;8.286;2024-02-21T08:15:46;7.20;99.90
5461;DHT22;2753;49.196;8.286;2024-02-21T08:18:12;7.20;99.90
5461;DHT22;2753;49.196;8.286;2024-02-21T08:20:37;7.30;99.90
5461;DHT22;2753;49.196;8.286;2024-02-21T08:23:03;7.30;99.90
5461;DHT22;2753;49.196;8.286;2024-02-21T08:25:29;7.30;99.90
5461;DHT22;2753;49.196;8.286;2024-02-21T08:27:58;7.40;99.90
5461;DHT22;2753;49.196;8.286;2024-02-21T08:30:25;7.40;99.90
5461;DHT22;2753;49.196;8.286;2024-02-21T08:32:51;7.40;99.90
5461;DHT22;2753;49.196;8.286;2024-02-21T08:35:20;7.40;99.90
5461;DHT22;2753;49.196;8.286;2024-02-21T08:37:47;7.50;99.90
5461;DHT22;2753;49.196;8.286;2024-02-21T08:40:14;7.50;99.90
5461;DHT22;2753;49.196;8.286;2024-02-21T08:42:43;7.50;99.90
5461;DHT22;2753;49.196;8.286;2024-02-21T08:45:09;7.50;99.90
5461;DHT22;2753;49.196;8.286;2024-02-21T08:47:35;7.50;99.90
5461;DHT22;2753;49.196;8.286;2024-02-21T08:50:03;7.60;99.90
5461;DHT22;2753;49.196;8.286;2024-02-21T08:52:29;7.70;99.90
5461;DHT22;2753;49.196;8.286;2024-02-21T08:54:55;7.70;99.90
5461;DHT22;2753;49.196;8.286;2024-02-21T08:57:20;7.70;99.90
5461;DHT22;2753;49.196;8.286;2024-02-21T08:59:46;7.60;99.90
5461;DHT22;2753;49.196;8.286;2024-02-21T09:02:13;7.80;99.90
5461;DHT22;2753;49.196;8.286;2024-02-21T09:04:38;7.90;99.90
5461;DHT22;2753;49.196;8.286;2024-02-21T09:07:04;7.90;99.90
5461;DHT22;2753;49.196;8.286;2024-02-21T09:09:29;7.90;99.90
5461;DHT22;2753;49.196;8.286;2024-02-21T09:11:55;8.00;99.90
5461;DHT22;2753;49.196;8.286;2024-02-21T09:14:21;8.10;99.90
5461;DHT22;2753;49.196;8.286;2024-02-21T09:16:47;8.10;99.90
5461;DHT22;2753;49.196;8.286;2024-02-21T09:19:13;8.20;99.90
5461;DHT22;2753;49.196;8.286;2024-02-21T09:21:39;8.30;99.90
5461;DHT22;2753;49.196;8.286;2024-02-21T09:24:05;8.30;99.90
5461;DHT22;2753;49.196;8.286;2024-02-21T09:26:31;8.40;99.90
5461;DHT22;2753;49.196;8.286;2024-02-21T09:28:57;8.50;99.90
5461;DHT22;2753;49.196;8.286;2024-02-21T09:31:23;8.60;99.90
5461;DHT22;2753;49.196;8.286;2024-02-21T09:33:48;8.70;99.90
5461;DHT22;2753;49.196;8.286;2024-02-21T09:36:17;8.70;99.90
5461;DHT22;2753;49.196;8.286;2024-02-21T09:38:43;8.80;99.90
5461;DHT22;2753;49.196;8.286;2024-02-21T09:43:38;8.90;99.90
5461;DHT22;2753;49.196;8.286;2024-02-21T09:46:16;8.90;99.90
5461;DHT22;2753;49.196;8.286;2024-02-21T09:48:58;8.90;99.90
5461;DHT22;2753;49.196;8.286;2024-02-21T09:51:30;8.90;99.90
5461;DHT22;2753;49.196;8.286;2024-02-21T09:53:58;8.90;99.90
5461;DHT22;2753;49.196;8.286;2024-02-21T09:56:25;9.00;99.90
5461;DHT22;2753;49.196;8.286;2024-02-21T09:58:50;9.00;99.90
5461;DHT22;2753;49.196;8.286;2024-02-21T10:01:16;9.00;99.90
5461;DHT22;2753;49.196;8.286;2024-02-21T10:03:42;9.00;99.90
5461;DHT22;2753;49.196;8.286;2024-02-21T10:06:09;9.10;99.90
5461;DHT22;2753;49.196;8.286;2024-02-21T10:08:35;9.00;99.90
5461;DHT22;2753;49.196;8.286;2024-02-21T10:11:01;9.10;99.90
5461;DHT22;2753;49.196;8.286;2024-02-21T10:13:29;9.20;99.90
5461;DHT22;2753;49.196;8.286;2024-02-21T10:16:05;9.20;99.90
5461;DHT22;2753;49.196;8.286;2024-02-21T10:18:32;9.30;99.90
5461;DHT22;2753;49.196;8.286;2024-02-21T10:21:06;9.40;99.90
5461;DHT22;2753;49.196;8.286;2024-02-21T10:23:45;9.50;99.90
5461;DHT22;2753;49.196;8.286;2024-02-21T10:26:11;9.50;99.90
5461;DHT22;2753;49.196;8.286;2024-02-21T10:28:37;9.60;99.90
5461;DHT22;2753;49.196;8.286;2024-02-21T10:31:11;9.70;99.90
5461;DHT22;2753;49.196;8.286;2024-02-21T10:33:41;9.70;99.90
5461;DHT22;2753;49.196;8.286;2024-02-21T10:36:08;9.70;99.90
5461;DHT22;2753;49.196;8.286;2024-02-21T10:38:38;9.70;99.90
5461;DHT22;2753;49.196;8.286;2024-02-21T10:41:05;9.80;99.90
5461;DHT22;2753;49.196;8.286;2024-02-21T10:43:40;9.80;99.90
5461;DHT22;2753;49.196;8.286;2024-02-21T10:46:09;9.80;99.90
5461;DHT22;2753;49.196;8.286;2024-02-21T10:48:44;9.80;99.90
5461;DHT22;2753;49.196;8.286;2024-02-21T10:51:18;9.90;99.90
5461;DHT22;2753;49.196;8.286;2024-02-21T10:56:33;9.80;99.90
5461;DHT22;2753;49.196;8.286;2024-02-21T10:59:06;9.90;99.90
5461;DHT22;2753;49.196;8.286;2024-02-21T11:01:32;9.90;99.90
5461;DHT22;2753;49.196;8.286;2024-02-21T11:04:03;9.90;99.90
5461;DHT22;2753;49.196;8.286;2024-02-21T11:06:29;9.90;99.90
5461;DHT22;2753;49.196;8.286;2024-02-21T11:09:09;10.00;99.90
5461;DHT22;2753;49.196;8.286;2024-02-21T11:11:39;10.00;99.90
5461;DHT22;2753;49.196;8.286;2024-02-21T11:14:06;10.10;99.90
5461;DHT22;2753;49.196;8.286;2024-02-21T11:19:10;10.10;99.90
5461;DHT22;2753;49.196;8.286;2024-02-21T11:21:44;10.10;99.90
5461;DHT22;2753;49.196;8.286;2024-02-21T11:24:10;10.10;99.90
5461;DHT22;2753;49.196;8.286;2024-02-21T11:26:37;10.10;99.90
5461;DHT22;2753;49.196;8.286;2024-02-21T12:21:05;10.20;99.90
5461;DHT22;2753;49.196;8.286;2024-02-21T12:23:30;10.20;99.90
5461;DHT22;2753;49.196;8.286;2024-02-21T12:25:56;10.20;99.90
5461;DHT22;2753;49.196;8.286;2024-02-21T12:28:22;10.30;99.90
5461;DHT22;2753;49.196;8.286;2024-02-21T12:30:47;10.30;99.90
5461;DHT22;2753;49.196;8.286;2024-02-21T12:33:13;10.30;99.90
5461;DHT22;2753;49.196;8.286;2024-02-21T12:35:41;10.30;99.90
5461;DHT22;2753;49.196;8.286;2024-02-21T12:38:07;10.30;99.90
5461;DHT22;2753;49.196;8.286;2024-02-21T12:40:33;10.30;99.90
5461;DHT22;2753;49.196;8.286;2024-02-21T12:43:02;10.30;99.90
5461;DHT22;2753;49.196;8.286;2024-02-21T12:45:28;10.30;99.90
5461;DHT22;2753;49.196;8.286;2024-02-21T12:47:54;10.30;99.90
5461;DHT22;2753;49.196;8.286;2024-02-21T12:50:20;10.30;99.90
5461;DHT22;2753;49.196;8.286;2024-02-21T12:52:48;10.30;99.90
5461;DHT22;2753;49.196;8.286;2024-02-21T12:55:15;10.30;99.90
5461;DHT22;2753;49.196;8.286;2024-02-21T12:57:42;10.30;99.90
5461;DHT22;2753;49.196;8.286;2024-02-21T13:00:08;10.30;99.90
5461;DHT22;2753;49.196;8.286;2024-02-21T13:02:36;10.40;99.90
5461;DHT22;2753;49.196;8.286;2024-02-21T13:05:02;10.40;99.90
5461;DHT22;2753;49.196;8.286;2024-02-21T13:07:29;10.40;99.90
5461;DHT22;2753;49.196;8.286;2024-02-21T13:09:56;10.40;99.90
5461;DHT22;2753;49.196;8.286;2024-02-21T13:12:22;10.40;99.90
5461;DHT22;2753;49.196;8.286;2024-02-21T13:14:48;10.40;99.90
5461;DHT22;2753;49.196;8.286;2024-02-21T13:17:13;10.40;99.90
5461;DHT22;2753;49.196;8.286;2024-02-21T13:19:40;10.40;99.90
5461;DHT22;2753;49.196;8.286;2024-02-21T13:22:07;10.40;99.90
5461;DHT22;2753;49.196;8.286;2024-02-21T13:24:33;10.40;99.90
5461;DHT22;2753;49.196;8.286;2024-02-21T13:26:59;10.40;99.90
5461;DHT22;2753;49.196;8.286;2024-02-21T13:29:25;10.40;99.90
5461;DHT22;2753;49.196;8.286;2024-02-21T13:31:50;10.40;99.90
5461;DHT22;2753;49.196;8.286;2024-02-21T13:34:16;10.40;99.90
5461;DHT22;2753;49.196;8.286;2024-02-21T13:36:42;10.40;99.90
5461;DHT22;2753;49.196;8.286;2024-02-21T13:39:08;10.40;99.90
5461;DHT22;2753;49.196;8.286;2024-02-21T13:41:36;10.40;99.90
5461;DHT22;2753;49.196;8.286;2024-02-21T13:44:02;10.40;99.90
5461;DHT22;2753;49.196;8.286;2024-02-21T13:46:29;10.40;99.90
5461;DHT22;2753;49.196;8.286;2024-02-21T13:49:03;10.50;99.90
5461;DHT22;2753;49.196;8.286;2024-02-21T13:51:33;10.40;99.90
5461;DHT22;2753;49.196;8.286;2024-02-21T13:54:04;10.40;99.90
5461;DHT22;2753;49.196;8.286;2024-02-21T13:56:31;10.40;99.90
5461;DHT22;2753;49.196;8.286;2024-02-21T13:58:58;10.40;99.90
5461;DHT22;2753;49.196;8.286;2024-02-21T14:01:25;10.40;99.90
5461;DHT22;2753;49.196;8.286;2024-02-21T14:03:51;10.40;99.90
5461;DHT22;2753;49.196;8.286;2024-02-21T14:06:17;10.40;99.90
5461;DHT22;2753;49.196;8.286;2024-02-21T14:08:42;10.40;99.90
5461;DHT22;2753;49.196;8.286;2024-02-21T14:11:08;10.40;99.90
5461;DHT22;2753;49.196;8.286;2024-02-21T14:13:34;10.40;99.90
5461;DHT22;2753;49.196;8.286;2024-02-21T14:15:59;10.40;99.90
5461;DHT22;2753;49.196;8.286;2024-02-21T14:18:25;10.40;99.90
5461;DHT22;2753;49.196;8.286;2024-02-21T14:20:51;10.40;99.90
5461;DHT22;2753;49.196;8.286;2024-02-21T14:23:16;10.40;99.90
5461;DHT22;2753;49.196;8.286;2024-02-21T14:25:42;10.40;99.90
5461;DHT22;2753;49.196;8.286;2024-02-21T14:28:08;10.40;99.90
5461;DHT22;2753;49.196;8.286;2024-02-21T14:30:36;10.50;99.90
5461;DHT22;2753;49.196;8.286;2024-02-21T14:33:02;11.10;99.90
5461;DHT22;2753;49.196;8.286;2024-02-21T14:35:28;10.50;99.90
5461;DHT22;2753;49.196;8.286;2024-02-21T14:37:57;10.50;99.90
5461;DHT22;2753;49.196;8.286;2024-02-21T14:40:23;10.50;99.90
5461;DHT22;2753;49.196;8.286;2024-02-21T14:42:48;10.50;99.90
5461;DHT22;2753;49.196;8.286;2024-02-21T14:45:14;10.50;99.90
5461;DHT22;2753;49.196;8.286;2024-02-21T14:47:40;10.50;99.90
5461;DHT22;2753;49.196;8.286;2024-02-21T14:50:06;10.50;99.90
5461;DHT22;2753;49.196;8.286;2024-02-21T14:52:32;10.50;99.90
5461;DHT22;2753;49.196;8.286;2024-02-21T14:54:58;10.50;99.90
5461;DHT22;2753;49.196;8.286;2024-02-21T14:57:25;10.50;99.90
5461;DHT22;2753;49.196;8.286;2024-02-21T14:59:50;10.50;99.90
5461;DHT22;2753;49.196;8.286;2024-02-21T15:02:22;10.50;99.90
5461;DHT22;2753;49.196;8.286;2024-02-21T15:04:48;10.50;99.90
5461;DHT22;2753;49.196;8.286;2024-02-21T15:07:14;10.50;99.90
5461;DHT22;2753;49.196;8.286;2024-02-21T15:09:39;10.40;99.90
5461;DHT22;2753;49.196;8.286;2024-02-21T15:12:05;10.50;99.90
5461;DHT22;2753;49.196;8.286;2024-02-21T15:14:31;10.40;99.90
5461;DHT22;2753;49.196;8.286;2024-02-21T15:16:57;10.50;99.90
5461;DHT22;2753;49.196;8.286;2024-02-21T15:19:23;10.40;99.90
5461;DHT22;2753;49.196;8.286;2024-02-21T15:21:48;10.40;99.90
5461;DHT22;2753;49.196;8.286;2024-02-21T15:24:14;10.40;99.90
5461;DHT22;2753;49.196;8.286;2024-02-21T15:26:40;10.40;99.90
5461;DHT22;2753;49.196;8.286;2024-02-21T15:29:05;10.40;99.90
5461;DHT22;2753;49.196;8.286;2024-02-21T15:31:31;10.40;99.90
5461;DHT22;2753;49.196;8.286;2024-02-21T15:34:00;10.40;99.90
5461;DHT22;2753;49.196;8.286;2024-02-21T15:36:25;10.40;99.90
5461;DHT22;2753;49.196;8.286;2024-02-21T15:38:53;10.40;99.90
5461;DHT22;2753;49.196;8.286;2024-02-21T15:41:20;10.40;99.90
5461;DHT22;2753;49.196;8.286;2024-02-21T15:43:47;10.30;99.90
5461;DHT22;2753;49.196;8.286;2024-02-21T15:46:13;10.30;99.90
5461;DHT22;2753;49.196;8.286;2024-02-21T15:48:41;10.40;99.90
5461;DHT22;2753;49.196;8.286;2024-02-21T15:51:07;10.40;99.90
5461;DHT22;2753;49.196;8.286;2024-02-21T15:53:33;10.40;99.90
5461;DHT22;2753;49.196;8.286;2024-02-21T15:55:58;10.30;99.90
5461;DHT22;2753;49.196;8.286;2024-02-21T15:58:24;10.30;99.90
5461;DHT22;2753;49.196;8.286;2024-02-21T16:00:50;10.30;99.90
5461;DHT22;2753;49.196;8.286;2024-02-21T16:03:18;10.30;99.90
5461;DHT22;2753;49.196;8.286;2024-02-21T16:05:44;10.30;99.90
5461;DHT22;2753;49.196;8.286;2024-02-21T16:08:10;10.30;99.90
5461;DHT22;2753;49.196;8.286;2024-02-21T16:10:35;10.30;99.90
5461;DHT22;2753;49.196;8.286;2024-02-21T16:13:01;10.30;99.90
5461;DHT22;2753;49.196;8.286;2024-02-21T16:15:26;10.20;99.90
5461;DHT22;2753;49.196;8.286;2024-02-21T16:17:52;10.20;99.90
5461;DHT22;2753;49.196;8.286;2024-02-21T16:20:18;10.20;99.90
5461;DHT22;2753;49.196;8.286;2024-02-21T16:22:44;10.20;99.90
5461;DHT22;2753;49.196;8.286;2024-02-21T16:25:10;10.20;99.90
5461;DHT22;2753;49.196;8.286;2024-02-21T16:27:36;10.20;99.90
5461;DHT22;2753;49.196;8.286;2024-02-21T16:30:02;10.20;99.90
5461;DHT22;2753;49.196;8.286;2024-02-21T16:32:31;10.20;99.90
5461;DHT22;2753;49.196;8.286;2024-02-21T16:34:59;10.10;99.90
5461;DHT22;2753;49.196;8.286;2024-02-21T16:37:25;10.20;99.90
5461;DHT22;2753;49.196;8.286;2024-02-21T16:39:51;10.10;99.90
5461;DHT22;2753;49.196;8.286;2024-02-21T16:42:18;10.10;99.90
5461;DHT22;2753;49.196;8.286;2024-02-21T16:44:43;10.10;99.90
5461;DHT22;2753;49.196;8.286;2024-02-21T16:47:09;10.20;99.90
5461;DHT22;2753;49.196;8.286;2024-02-21T16:49:35;10.10;99.90
5461;DHT22;2753;49.196;8.286;2024-02-21T16:52:00;10.10;99.90
5461;DHT22;2753;49.196;8.286;2024-02-21T16:54:26;10.10;99.90
5461;DHT22;2753;49.196;8.286;2024-02-21T16:56:52;10.00;99.90
5461;DHT22;2753;49.196;8.286;2024-02-21T16:59:17;10.00;99.90
5461;DHT22;2753;49.196;8.286;2024-02-21T17:01:44;10.00;99.90
5461;DHT22;2753;49.196;8.286;2024-02-21T17:04:10;10.00;99.90
5461;DHT22;2753;49.196;8.286;2024-02-21T17:06:36;10.00;99.90